Time;durP1;ratioP1;P1;durP2;ratioP2;P2;SDS_P1;SDS_P2;PMS_P1;PMS_P2;Temp;Humidity;BMP_temperature;BMP_pressure;BME280_temperature;BME280_humidity;BME280_pressure;Samples;Min_cycle;Max_cycle;Signal;HPM_P1;HPM_P2
2022/06/09 01:03:39;;;;;;;;;;;;;;;14.52;100.00;99667.03;5225004;22;31096696;-94
2022/06/09 01:21:27;;;;;;;;;;;;;;;;;;;;;
2022/06/09 01:32:48;;;;;;;;;;;;;;;;;;;;;
2022/06/09 01:49:35;;;;;;;;;2.33;2.00;;;;;14.27;100.00;99718.66;5781329;24;45511;-93
2022/06/09 01:52:46;;;;;;;;;2.33;1.00;;;;;14.22;100.00;99718.59;5811393;24;47168;-95
2022/06/09 01:59:19;;;;;;;;;;;;;;;;;;;;;
2022/06/09 02:06:10;;;;;;;;;2.67;1.00;;;;;14.38;100.00;99753.97;5837271;24;45468;-94
2022/06/09 02:12:49;;;;;;;;;2.67;2.00;;;;;14.38;100.00;99763.69;5840243;24;45484;-95
2022/06/09 02:16:17;;;;;;;;;;;;;;;;;;;;;
2022/06/09 02:37:25;;;;;;;;;;;;;;;;;;;;;
2022/06/09 02:40:55;;;;;;;;;;;;;;;;;;;;;
2022/06/09 02:47:31;;;;;;;;;2.00;2.00;;;;;14.12;100.00;99778.25;5949982;23;45559;-96
2022/06/09 02:54:10;;;;;;;;;;;;;;;;;;;;;
2022/06/09 02:57:34;;;;;;;;;3.00;3.00;;;;;13.93;100.00;99756.88;6011166;23;69996;-96
2022/06/09 03:00:56;;;;;;;;;;;;;;;;;;;;;
2022/06/09 05:27:26;;;;;;;;;2.00;2.00;;;;;15.16;100.00;99922.31;6223991;22;46717;-95
2022/06/09 05:30:47;;;;;;;;;;;;;;;;;;;;;
2022/06/09 05:46:36;;;;;;;;;5.33;2.67;;;;;15.51;100.00;99918.34;6285184;22;45665;-94
2022/06/09 05:56:51;;;;;;;;;;;;;;;;;;;;;
2022/06/09 06:03:24;;;;;;;;;3.00;2.33;;;;;16.48;100.00;99947.53;6019138;23;45637;-94
2022/06/09 06:12:16;;;;;;;;;8.00;3.00;;;;;16.41;100.00;99915.72;5930192;24;45543;-95
2022/06/09 06:14:42;;;;;;;;;2.67;2.67;;;;;16.45;100.00;99928.97;5930534;24;45681;-95
2022/06/09 06:18:08;;;;;;;;;;;;;;;;;;;;;
2022/06/09 06:24:31;;;;;;;;;4.33;3.33;;;;;16.86;100.00;99930.13;5902373;24;45413;-93
2022/06/09 06:26:57;;;;;;;;;3.67;2.00;;;;;16.93;100.00;99936.38;5900855;24;45271;-92
2022/06/09 06:29:27;;;;;;;;;4.00;2.67;;;;;16.98;100.00;99954.06;5939058;23;45364;-93
2022/06/09 06:31:53;;;;;;;;;3.00;3.00;;;;;16.98;100.00;99953.19;5956825;23;45388;-91
2022/06/09 06:34:18;;;;;;;;;3.67;1.67;;;;;17.05;100.00;99965.59;5871732;23;46200;-89
2022/06/09 06:36:44;;;;;;;;;4.00;4.00;;;;;17.15;100.00;99965.66;5888200;24;45596;-87
2022/06/09 06:39:09;;;;;;;;;3.67;1.33;;;;;17.23;100.00;99968.38;5955366;23;45466;-87
2022/06/09 06:41:35;;;;;;;;;4.00;3.00;;;;;17.27;100.00;99964.84;6028468;23;45348;-88
2022/06/09 06:44:00;;;;;;;;;2.33;2.33;;;;;17.31;100.00;99961.34;6032404;23;45460;-90
2022/06/09 06:46:27;;;;;;;;;3.33;3.00;;;;;17.38;100.00;99967.56;6036225;23;45432;-90
2022/06/09 06:48:53;;;;;;;;;2.33;2.33;;;;;17.45;100.00;99960.50;6086177;23;45365;-90
2022/06/09 06:51:18;;;;;;;;;5.00;2.67;;;;;17.51;100.00;99965.84;6136707;23;45380;-92
2022/06/09 06:53:45;;;;;;;;;4.00;3.00;;;;;17.58;100.00;99964.09;6154871;23;49485;-90
2022/06/09 06:56:11;;;;;;;;;6.67;4.00;;;;;17.69;100.00;99965.03;6154840;22;45526;-91
2022/06/09 06:58:37;;;;;;;;;3.67;3.67;;;;;17.81;100.00;99972.13;6243458;22;45186;-91
2022/06/09 07:01:03;;;;;;;;;5.67;3.00;;;;;17.93;100.00;99973.06;6192915;22;45232;-90
2022/06/09 07:03:29;;;;;;;;;4.67;4.00;;;;;18.00;100.00;99968.66;6246561;22;45240;-90
2022/06/09 07:05:55;;;;;;;;;3.33;3.00;;;;;18.00;100.00;99966.88;6242315;22;45458;-91
2022/06/09 07:08:20;;;;;;;;;4.00;3.67;;;;;18.04;100.00;99987.25;6242506;22;44664;-92
2022/06/09 07:10:46;;;;;;;;;5.67;3.00;;;;;18.07;100.00;99976.63;6247878;22;44710;-91
2022/06/09 07:13:12;;;;;;;;;2.33;2.00;;;;;18.07;100.00;99983.69;6251600;22;47288;-93
2022/06/09 07:15:37;;;;;;;;;3.67;2.33;;;;;18.07;100.00;99986.34;6248122;22;45357;-90
2022/06/09 07:18:03;;;;;;;;;3.00;3.00;;;;;18.13;100.00;99991.69;6250692;22;45378;-92
2022/06/09 07:20:28;;;;;;;;;5.67;4.00;;;;;18.16;100.00;99996.13;6250813;22;45438;-93
2022/06/09 07:22:54;;;;;;;;;7.33;5.33;;;;;18.26;100.00;99997.06;6253416;22;45175;-92
2022/06/09 07:25:23;;;;;;;;;7.67;4.33;;;;;18.41;100.00;100004.16;6249918;22;44636;-92
2022/06/09 07:27:51;;;;;;;;;7.33;3.67;;;;;18.52;100.00;100004.16;6247066;22;45802;-93
2022/06/09 07:30:18;;;;;;;;;4.00;3.67;;;;;18.61;100.00;100012.13;6246852;22;45304;-91
2022/06/09 07:32:43;;;;;;;;;3.00;3.00;;;;;18.72;100.00;100012.13;6251287;22;45378;-93
2022/06/09 07:35:13;;;;;;;;;4.00;3.33;;;;;18.82;100.00;100002.38;6248311;22;45196;-95
2022/06/09 07:37:39;;;;;;;;;7.00;3.33;;;;;18.98;100.00;100013.91;6240985;22;45846;-91
2022/06/09 07:40:05;;;;;;;;;6.00;5.00;;;;;19.14;100.00;100019.19;6243721;22;44915;-93
2022/06/09 07:42:31;;;;;;;;;5.00;5.00;;;;;19.31;100.00;100013.84;6248011;22;45705;-95
2022/06/09 07:44:57;;;;;;;;;6.67;4.00;;;;;19.29;100.00;100007.66;6250292;22;44911;-93
2022/06/09 07:47:23;;;;;;;;;4.00;3.00;;;;;19.23;100.00;99996.13;6250429;22;45321;-96
2022/06/09 07:49:49;;;;;;;;;6.00;6.00;;;;;19.15;100.00;100025.38;6249137;22;45402;-96
2022/06/09 07:52:15;;;;;;;;;4.00;2.00;;;;;19.19;100.00;100009.47;6251389;22;45422;-94
2022/06/09 07:54:41;;;;;;;;;5.33;4.00;;;;;19.18;100.00;100006.78;6250116;22;45256;-94
2022/06/09 07:57:07;;;;;;;;;5.67;4.67;;;;;19.21;100.00;100006.78;6257994;22;45788;-94
2022/06/09 07:59:35;;;;;;;;;4.00;3.00;;;;;19.26;100.00;100010.31;6242042;22;45536;-95
2022/06/09 08:02:00;;;;;;;;;4.00;4.00;;;;;19.30;100.00;100005.88;6249220;22;47169;-94
2022/06/09 08:04:26;;;;;;;;;6.33;3.00;;;;;19.39;100.00;100005.84;6242609;22;45317;-95
2022/06/09 08:06:52;;;;;;;;;7.00;5.00;;;;;19.46;100.00;99998.72;6248905;22;45207;-95
2022/06/09 08:09:17;;;;;;;;;5.67;5.67;;;;;19.56;100.00;100007.56;6246936;22;45332;-95
2022/06/09 08:11:44;;;;;;;;;4.67;4.67;;;;;19.70;100.00;100014.59;6248699;22;47440;-95
2022/06/09 08:14:10;;;;;;;;;6.00;4.00;;;;;19.98;100.00;100019.78;6254331;22;44716;-96
2022/06/09 08:16:36;;;;;;;;;6.00;5.00;;;;;20.12;100.00;99979.81;6236207;22;45220;-94
2022/06/09 08:19:04;;;;;;;;;5.67;3.67;;;;;20.31;100.00;99990.31;6255438;22;45243;-92
2022/06/09 08:27:07;;;;;;;;;5.00;5.00;;;;;20.26;100.00;100018.75;6190474;22;45260;-94
2022/06/09 08:29:32;;;;;;;;;6.67;4.33;;;;;20.38;100.00;100008.03;6190474;23;45284;-94
2022/06/09 08:31:58;;;;;;;;;4.33;3.33;;;;;20.56;100.00;100011.47;6166935;23;45057;-92
2022/06/09 08:34:24;;;;;;;;;7.00;4.33;;;;;20.57;100.00;100034.53;6144305;23;44789;-92
2022/06/09 08:36:50;;;;;;;;;5.33;4.33;;;;;20.48;100.00;100024.84;6165618;22;45398;-95
2022/06/09 08:39:15;;;;;;;;;6.33;3.00;;;;;20.44;100.00;100031.06;6163763;23;45335;-95
2022/06/09 08:42:02;;;;;;;;;3.33;2.67;;;;;20.40;100.00;100030.22;6188292;23;45413;-94
2022/06/09 08:44:48;;;;;;;;;6.33;5.00;;;;;20.42;100.00;100027.53;6189446;23;45240;-94
2022/06/09 08:47:37;;;;;;;;;3.33;2.00;;;;;20.59;100.00;100029.22;6166699;22;45252;-94
2022/06/09 08:50:28;;;;;;;;;6.33;3.00;;;;;20.76;100.00;100021.97;6217044;22;45154;-94
2022/06/09 08:53:25;;;;;;;;;4.33;4.33;;;;;20.92;100.00;100024.50;6221616;22;47088;-94
2022/06/09 08:55:58;;;;;;;;;3.33;3.33;;;;;20.96;100.00;100010.22;6318540;22;45399;-94
2022/06/09 08:58:47;;;;;;;;;2.00;2.00;;;;;21.10;100.00;100027.91;6291718;22;45225;-95
2022/06/09 09:01:17;;;;;;;;;1.00;1.00;;;;;21.14;100.00;100021.63;6221671;22;45121;-94
2022/06/09 09:03:51;;;;;;;;;2.00;2.00;;;;;21.01;100.00;100010.19;6221587;22;46267;-94
2022/06/09 09:06:52;;;;;;;;;3.33;3.33;;;;;20.96;100.00;100036.88;6226212;22;45243;-94
2022/06/09 09:09:24;;;;;;;;;5.00;2.67;;;;;21.24;100.00;100011.72;6222185;22;45138;-93
2022/06/09 09:12:00;;;;;;;;;3.00;3.00;;;;;21.24;100.00;100008.16;6222843;22;45299;-95
2022/06/09 09:14:54;;;;;;;;;5.00;3.00;;;;;21.16;100.00;100014.47;6225151;22;47242;-95
2022/06/09 09:17:30;;;;;;;;;6.00;4.00;;;;;21.12;100.00;100025.22;6222982;22;45260;-93
2022/06/09 09:20:14;;;;;;;;;4.33;2.33;;;;;21.30;100.00;100005.44;6219740;22;45231;-94
2022/06/09 09:23:18;;;;;;;;;3.00;2.00;;;;;21.44;100.00;100029.31;6222021;22;45422;-94
2022/06/09 09:26:00;;;;;;;;;2.67;2.67;;;;;21.29;100.00;100023.25;6221914;22;46172;-95
2022/06/09 09:28:32;;;;;;;;;2.00;2.00;;;;;21.22;100.00;100040.22;6210365;22;46488;-95
2022/06/09 09:31:25;;;;;;;;;2.67;2.67;;;;;21.32;100.00;100009.88;6216227;22;45276;-95
2022/06/09 09:33:51;;;;;;;;;4.67;4.00;;;;;21.51;100.00;100033.69;6220657;22;45879;-96
2022/06/09 09:36:29;;;;;;;;;6.33;4.00;;;;;21.50;100.00;100026.56;6219739;22;45616;-94
2022/06/09 09:39:13;;;;;;;;;5.00;4.00;;;;;21.43;100.00;100031.09;6194879;22;45312;-93
2022/06/09 09:41:40;;;;;;;;;3.00;3.00;;;;;21.81;100.00;100024.41;6219564;22;45209;-95
2022/06/09 09:44:19;;;;;;;;;6.00;3.00;;;;;22.31;100.00;100016.63;6220392;22;45113;-94
2022/06/09 09:47:03;;;;;;;;;6.00;3.33;;;;;22.49;100.00;100027.06;6221873;22;46920;-95
2022/06/09 09:49:43;;;;;;;;;3.33;3.00;;;;;22.37;100.00;100031.66;6220218;22;45299;-94
2022/06/09 09:52:39;;;;;;;;;2.00;2.00;;;;;23.32;100.00;100026.50;6223779;22;44742;-96
2022/06/09 09:55:33;;;;;;;;;0.00;0.00;;;;;25.60;100.00;100005.06;6221919;22;45290;-95
2022/06/09 09:58:14;;;;;;;;;2.00;2.00;;;;;26.01;100.00;100095.28;6220368;22;46343;-95
2022/06/09 10:00:44;;;;;;;;;1.00;1.00;;;;;25.60;100.00;100173.44;6215715;22;45658;-96
2022/06/09 10:09:33;;;;;;;;;3.67;2.00;;;;;25.56;100.00;100235.31;6224147;22;45428;-96
2022/06/09 10:12:12;;;;;;;;;2.33;2.00;;;;;25.03;100.00;100207.06;6220366;22;45203;-94
2022/06/09 10:14:52;;;;;;;;;2.00;2.00;;;;;24.43;100.00;100228.97;6217623;22;45315;-91
2022/06/09 10:17:29;;;;;;;;;3.67;2.00;;;;;24.00;100.00;100175.25;6216682;22;44902;-95
2022/06/09 10:20:32;;;;;;;;;2.00;2.00;;;;;23.59;100.00;100255.50;6250762;22;46400;-94
2022/06/09 10:23:06;;;;;;;;;2.00;2.00;;;;;23.29;100.00;100215.78;6252042;22;44675;-95
2022/06/09 10:25:51;;;;;;;;;2.00;2.00;;;;;23.12;100.00;100249.03;6228833;22;44701;-92
2022/06/09 10:28:39;;;;;;;;;2.00;2.00;;;;;22.99;100.00;100256.38;6220541;22;44967;-95
2022/06/09 10:31:09;;;;;;;;;3.00;2.00;;;;;22.89;100.00;100260.97;6257333;22;45626;-91
2022/06/09 10:33:46;;;;;;;;;1.00;1.00;;;;;22.85;100.00;100212.00;6199397;22;45108;-93
2022/06/09 10:36:48;;;;;;;;;3.00;2.00;;;;;22.70;100.00;100190.81;6259171;22;45695;-94
2022/06/09 10:39:36;;;;;;;;;2.00;1.00;;;;;22.55;100.00;100192.72;6327240;22;45214;-96
2022/06/09 10:42:30;;;;;;;;;5.33;2.33;;;;;22.47;100.00;100182.13;6321083;22;47245;-95
2022/06/09 10:45:16;;;;;;;;;2.33;2.00;;;;;22.53;100.00;100187.41;6316094;22;45896;-93
2022/06/09 10:56:54;;;;;;;;;3.33;2.00;;;;;23.52;100.00;100204.72;6284202;22;45282;-91
2022/06/09 10:59:29;;;;;;;;;1.33;1.33;;;;;24.30;100.00;100172.03;6279499;22;45294;-91
2022/06/09 11:01:54;;;;;;;;;4.33;3.33;;;;;26.57;100.00;100159.97;6285627;22;45600;-93
2022/06/09 11:04:22;;;;;;;;;3.00;3.00;;;;;29.63;100.00;100115.41;6257895;22;47232;-92
2022/06/09 11:07:12;;;;;;;;;3.67;2.00;;;;;31.86;100.00;100139.88;6259518;22;45332;-94
2022/06/09 11:09:49;;;;;;;;;2.00;2.00;;;;;32.19;100.00;100355.25;6292064;22;44684;-94
2022/06/09 11:12:39;;;;;;;;;4.00;3.00;;;;;32.21;100.00;100446.53;6299501;22;44804;-93
2022/06/09 11:15:15;;;;;;;;;1.00;1.00;;;;;32.98;100.00;100550.44;6204563;22;46729;-95
2022/06/09 11:46:57;;;;;;;;;0.00;0.00;;;;;32.52;100.00;101321.41;6260715;22;45032;-91
2022/06/09 11:52:14;;;;;;;;;5.67;1.00;;;;;31.12;100.00;101225.06;6280762;22;44867;-87
2022/06/09 11:54:58;;;;;;;;;2.67;1.00;;;;;31.94;100.00;101186.91;6250409;22;45414;-87
2022/06/09 11:57:36;;;;;;;;;3.00;1.00;;;;;33.45;100.00;101220.69;6263846;22;47166;-87
2022/06/09 12:00:22;;;;;;;;;0.00;0.00;;;;;35.19;100.00;101407.16;6257325;22;45277;-87
2022/06/09 12:05:52;;;;;;;;;1.00;0.33;;;;;38.36;100.00;101324.06;6228098;22;44821;-91
2022/06/09 12:08:56;;;;;;;;;3.00;3.00;;;;;39.62;100.00;101389.97;6265089;22;45205;-89
2022/06/09 12:11:23;;;;;;;;;2.33;1.00;;;;;38.35;90.81;101505.91;6163907;23;45271;-89
2022/06/09 12:14:00;;;;;;;;;1.00;1.00;;;;;37.60;94.67;101458.31;6167827;23;44771;-87
2022/06/09 12:16:54;;;;;;;;;2.67;2.00;;;;;39.21;98.39;101434.72;6168291;23;45288;-88
2022/06/09 12:19:31;;;;;;;;;1.00;0.00;;;;;39.70;89.82;101496.56;6109293;23;47458;-90
2022/06/09 12:22:19;;;;;;;;;0.33;0.00;;;;;40.33;86.68;101518.84;6332231;22;45216;-90
2022/06/09 12:25:17;;;;;;;;;0.00;0.00;;;;;41.28;79.60;101551.66;6361328;22;44821;-91
2022/06/09 12:27:50;;;;;;;;;0.67;0.67;;;;;41.37;77.92;101560.19;6332350;22;44831;-88
2022/06/09 12:30:26;;;;;;;;;0.00;0.00;;;;;40.94;76.13;101557.72;6361789;22;47112;-89
2022/06/09 12:33:21;;;;;;;;;0.00;0.00;;;;;42.63;73.48;101568.19;6387791;22;44836;-90
2022/06/09 12:35:54;;;;;;;;;2.33;1.00;;;;;44.36;78.67;101543.88;6390264;22;44893;-90
2022/06/09 12:38:41;;;;;;;;;1.33;0.33;;;;;45.54;72.35;101564.81;6361883;22;44961;-88
2022/06/09 12:41:23;;;;;;;;;2.00;1.00;;;;;44.61;70.95;101574.09;6363073;22;45346;-91
2022/06/09 12:44:05;;;;;;;;;1.00;0.00;;;;;43.60;68.80;101571.47;6374903;22;45572;-92
2022/06/09 12:46:31;;;;;;;;;0.67;0.67;;;;;43.55;68.73;101574.63;6362899;22;44823;-90
2022/06/09 12:48:58;;;;;;;;;3.00;1.00;;;;;44.12;68.35;101574.56;6389991;22;45243;-91
2022/06/09 12:51:33;;;;;;;;;1.00;0.00;;;;;45.64;63.16;101589.78;6358515;22;48039;-90
2022/06/09 12:54:04;;;;;;;;;1.00;0.00;;;;;46.12;62.14;101585.44;6336266;22;45084;-91
2022/06/09 12:56:44;;;;;;;;;0.00;0.00;;;;;45.14;60.33;101579.56;6363727;22;44804;-88
2022/06/09 12:59:28;;;;;;;;;3.00;0.67;;;;;45.45;63.17;101593.41;6362668;22;44811;-89
2022/06/09 13:02:16;;;;;;;;;0.67;0.00;;;;;46.63;59.94;101588.03;6340707;22;47322;-87
2022/06/09 13:04:52;;;;;;;;;0.33;0.33;;;;;45.43;56.66;101601.00;6260823;22;45372;-89
2022/06/09 13:07:24;;;;;;;;;0.00;0.00;;;;;43.75;55.89;101598.81;6256898;22;45641;-90
2022/06/09 13:10:16;;;;;;;;;1.00;0.00;;;;;43.31;58.86;101589.47;6260940;22;44941;-87
2022/06/09 13:12:51;;;;;;;;;0.00;0.00;;;;;43.91;58.81;101590.13;6261200;22;45111;-89
2022/06/09 13:15:33;;;;;;;;;1.33;0.33;;;;;44.60;58.54;101598.09;6261679;22;44729;-87
2022/06/09 13:18:02;;;;;;;;;0.00;0.00;;;;;44.49;58.46;101587.94;6264526;22;45216;-86
2022/06/09 13:20:29;;;;;;;;;1.67;0.00;;;;;44.52;58.17;101592.34;6259972;22;44791;-88
2022/06/09 13:22:55;;;;;;;;;0.00;0.00;;;;;44.75;58.47;101590.31;6264953;22;46140;-88
2022/06/09 13:25:24;;;;;;;;;2.00;0.33;;;;;44.31;56.99;101591.31;6263075;22;44672;-90
2022/06/09 13:30:50;;;;;;;;;0.00;0.00;;;;;41.20;55.33;101603.63;6183204;22;44852;-88
2022/06/09 13:34:00;;;;;;;;;0.67;0.00;;;;;39.12;55.99;101594.53;6178927;22;45529;-90
2022/06/09 13:36:30;;;;;;;;;1.00;0.00;;;;;37.84;57.07;101606.59;6264059;22;45292;-89
2022/06/09 13:41:39;;;;;;;;;1.00;1.00;;;;;37.31;60.21;101590.38;6218151;22;46169;-87
2022/06/09 13:44:08;;;;;;;;;0.33;0.00;;;;;38.81;60.43;101577.22;6259012;22;45500;-89
2022/06/09 13:46:52;;;;;;;;;3.00;1.00;;;;;40.58;62.58;101590.50;6209294;22;44806;-88
2022/06/09 13:49:24;;;;;;;;;2.33;0.00;;;;;40.80;60.46;101602.72;6230320;22;45316;-88
2022/06/09 13:51:52;;;;;;;;;0.00;0.00;;;;;40.21;60.66;101610.38;6212969;22;45655;-89
2022/06/09 13:54:26;;;;;;;;;0.00;0.00;;;;;39.77;58.30;101618.75;6237455;22;45402;-88
2022/06/09 13:56:52;;;;;;;;;1.33;0.00;;;;;39.38;59.39;101604.81;6206886;22;45865;-90
2022/06/09 13:59:19;;;;;;;;;0.00;0.00;;;;;38.84;59.80;101610.00;6205241;22;45384;-89
2022/06/09 14:01:45;;;;;;;;;0.00;0.00;;;;;38.94;60.89;101600.16;6236039;22;45347;-89
2022/06/09 14:04:17;;;;;;;;;2.00;0.00;;;;;40.49;63.30;101588.41;6234967;22;45581;-90
2022/06/09 14:06:43;;;;;;;;;0.00;0.00;;;;;41.77;59.74;101601.31;6207335;22;45985;-90
2022/06/09 14:09:14;;;;;;;;;2.00;0.00;;;;;42.52;59.69;101593.91;6206745;22;45288;-90
2022/06/09 14:11:39;;;;;;;;;0.00;0.00;;;;;44.03;57.42;101602.00;6208065;22;45530;-89
2022/06/09 14:14:04;;;;;;;;;0.00;0.00;;;;;45.94;58.54;101591.72;6212874;22;47162;-90
2022/06/09 14:16:33;;;;;;;;;0.00;0.00;;;;;48.00;54.57;101622.72;6219398;22;45692;-89
2022/06/09 14:19:00;;;;;;;;;0.00;0.00;;;;;49.60;55.73;101610.66;6235476;22;45551;-90
2022/06/09 14:21:26;;;;;;;;;0.00;0.00;;;;;50.89;54.29;101611.19;6223976;22;45267;-90
2022/06/09 14:23:51;;;;;;;;;0.00;0.00;;;;;51.67;50.32;101619.91;6242124;22;45279;-91
2022/06/09 14:26:19;;;;;;;;;0.00;0.00;;;;;52.61;50.17;101619.84;6215843;22;45505;-94
2022/06/09 14:28:49;;;;;;;;;0.00;0.00;;;;;52.18;48.64;101624.97;6247660;22;45330;-94
2022/06/09 14:31:18;;;;;;;;;0.00;0.00;;;;;51.36;48.43;101616.06;6202688;22;44838;-91
2022/06/09 14:36:16;;;;;;;;;0.00;0.00;;;;;49.00;45.98;101622.63;6189808;22;45588;-92
2022/06/09 14:38:42;;;;;;;;;1.33;0.67;;;;;47.09;46.65;101617.84;6173143;22;45431;-91
2022/06/09 14:41:07;;;;;;;;;1.67;0.67;;;;;44.72;48.68;101620.16;6151876;23;45472;-92
2022/06/09 14:43:33;;;;;;;;;1.67;0.00;;;;;42.94;50.75;101620.94;6174647;22;46393;-91
2022/06/09 14:45:59;;;;;;;;;0.00;0.00;;;;;41.42;47.29;101613.94;6176687;23;45329;-92
2022/06/09 14:48:26;;;;;;;;;2.00;2.00;;;;;40.01;50.68;101612.63;6148001;22;45352;-95
2022/06/09 14:50:53;;;;;;;;;0.00;0.00;;;;;38.79;51.75;101623.94;6194335;22;45248;-96
2022/06/09 14:53:19;;;;;;;;;1.00;1.00;;;;;37.64;53.38;101610.50;6160766;23;46231;-96
2022/06/09 14:55:46;;;;;;;;;0.00;0.00;;;;;36.57;52.58;101632.53;6156135;23;45686;-96
2022/06/09 14:58:14;;;;;;;;;0.33;0.33;;;;;35.53;55.17;101612.94;6156902;22;45627;-93
2022/06/09 15:00:40;;;;;;;;;1.00;0.00;;;;;34.58;54.41;101628.03;6177479;23;45387;-95
2022/06/09 15:03:05;;;;;;;;;1.33;0.00;;;;;33.78;55.48;101616.69;6152518;23;46285;-93
2022/06/09 15:05:31;;;;;;;;;0.00;0.00;;;;;33.06;57.18;101621.16;6178965;22;45301;-94
2022/06/09 15:07:59;;;;;;;;;1.33;1.00;;;;;32.30;55.70;101610.09;6155630;22;45375;-96
2022/06/09 15:10:30;;;;;;;;;2.33;1.00;;;;;31.61;58.79;101612.22;6167397;22;45380;-91
2022/06/09 15:12:58;;;;;;;;;0.00;0.00;;;;;30.96;59.52;101607.69;6188818;22;47254;-93
2022/06/09 15:15:24;;;;;;;;;0.33;0.33;;;;;30.36;59.53;101599.31;6204008;22;45391;-92
2022/06/09 15:17:52;;;;;;;;;0.00;0.00;;;;;29.78;61.47;101575.34;6191033;22;46522;-92
2022/06/09 15:20:22;;;;;;;;;5.00;4.67;;;;;29.37;63.27;101550.97;6202007;22;45470;-91
2022/06/09 15:22:48;;;;;;;;;9.00;7.67;;;;;29.26;64.72;101555.69;6208580;22;47416;-91
2022/06/09 15:25:13;;;;;;;;;6.00;6.00;;;;;29.05;64.98;101552.47;6178523;22;45703;-93
2022/06/09 15:27:40;;;;;;;;;2.67;2.00;;;;;28.69;66.21;101545.06;6202325;22;45397;-92
2022/06/09 15:30:07;;;;;;;;;1.00;1.00;;;;;28.22;64.55;101565.59;6203786;22;45512;-93
2022/06/09 15:32:33;;;;;;;;;4.00;1.00;;;;;27.84;66.07;101532.91;6203099;22;48304;-94
2022/06/09 15:35:00;;;;;;;;;1.00;0.67;;;;;27.72;66.32;101558.25;6204129;22;45932;-92
2022/06/09 15:37:25;;;;;;;;;1.00;0.67;;;;;27.50;68.90;101516.28;6218018;22;44717;-94
2022/06/09 15:39:51;;;;;;;;;0.67;0.67;;;;;27.37;70.68;101477.81;6203203;22;45371;-93
2022/06/09 15:42:17;;;;;;;;;4.00;4.00;;;;;27.30;70.22;101489.59;6202099;22;48292;-95
2022/06/09 15:44:42;;;;;;;;;2.33;2.00;;;;;27.34;73.13;101446.41;6202390;22;45815;-95
2022/06/09 15:47:08;;;;;;;;;4.67;1.33;;;;;27.38;72.22;101449.97;6202311;22;45333;-95
2022/06/09 15:49:33;;;;;;;;;3.00;1.67;;;;;27.51;69.90;101510.00;6201262;22;45255;-94
2022/06/09 15:51:59;;;;;;;;;2.00;1.00;;;;;27.57;69.46;101522.50;6203431;22;46677;-95
2022/06/09 15:54:24;;;;;;;;;4.00;3.00;;;;;27.58;71.41;101505.41;6200651;22;45725;-94
2022/06/09 15:56:50;;;;;;;;;1.00;1.00;;;;;27.56;70.55;101518.91;6202839;22;45341;-92
2022/06/09 15:59:16;;;;;;;;;3.33;2.00;;;;;27.47;70.48;101524.44;6205277;22;45824;-94
2022/06/09 16:01:41;;;;;;;;;0.67;0.67;;;;;27.41;71.65;101503.84;6201209;22;46952;-92
2022/06/09 16:04:06;;;;;;;;;0.67;0.67;;;;;27.28;72.31;101481.56;6202777;22;45392;-93
2022/06/09 16:06:32;;;;;;;;;0.67;0.67;;;;;27.14;71.37;101523.97;6202455;22;45512;-92
2022/06/09 16:08:58;;;;;;;;;2.67;1.33;;;;;26.94;73.68;101479.25;6203798;22;45259;-94
2022/06/09 16:11:24;;;;;;;;;0.00;0.00;;;;;26.71;74.06;101475.03;6201298;22;47030;-92
2022/06/09 16:13:50;;;;;;;;;2.00;1.00;;;;;26.47;75.28;101445.66;6203246;22;45189;-91
2022/06/09 16:16:16;;;;;;;;;2.00;1.00;;;;;26.22;76.28;101421.66;6203951;22;45290;-91
2022/06/09 16:18:41;;;;;;;;;1.33;0.33;;;;;26.01;75.73;101423.63;6347995;22;45486;-92
2022/06/09 16:21:06;;;;;;;;;0.67;0.33;;;;;25.87;76.78;101392.38;6396452;22;45184;-92
2022/06/09 16:23:32;;;;;;;;;0.00;0.00;;;;;25.69;78.31;101354.88;6396510;22;45399;-92
2022/06/09 16:25:57;;;;;;;;;3.33;3.33;;;;;25.51;81.07;101271.69;6367454;22;45571;-92
2022/06/09 16:28:23;;;;;;;;;1.00;1.00;;;;;25.29;80.51;101285.31;6395850;22;45425;-92
2022/06/09 16:30:49;;;;;;;;;0.00;0.00;;;;;25.10;78.89;101336.47;6397040;22;45713;-92
2022/06/09 16:33:17;;;;;;;;;1.33;1.00;;;;;24.97;81.20;101279.25;6395683;22;45543;-90
2022/06/09 16:35:43;;;;;;;;;1.67;1.00;;;;;25.03;82.78;101202.25;6396122;22;45252;-92
2022/06/09 16:38:09;;;;;;;;;4.00;3.33;;;;;25.14;82.62;101229.94;6367791;22;45523;-92
2022/06/09 16:40:37;;;;;;;;;2.00;2.00;;;;;25.17;83.37;101200.38;6396453;22;47499;-91
2022/06/09 16:43:05;;;;;;;;;2.33;2.00;;;;;25.21;81.72;101276.44;6397256;22;45301;-92
2022/06/09 16:45:31;;;;;;;;;2.00;1.00;;;;;25.15;81.00;101293.47;6369172;22;45657;-91
2022/06/09 16:47:57;;;;;;;;;1.67;1.67;;;;;25.06;83.44;101229.09;6397081;22;45302;-92
2022/06/09 16:50:24;;;;;;;;;2.00;1.00;;;;;24.90;84.04;101210.38;6367014;22;47018;-93
2022/06/09 16:52:50;;;;;;;;;1.00;1.00;;;;;24.74;83.36;101202.44;6397780;22;45238;-93
2022/06/09 16:55:16;;;;;;;;;0.33;0.33;;;;;24.61;82.83;101247.25;6398852;22;45303;-91
2022/06/09 16:57:43;;;;;;;;;1.33;1.33;;;;;24.50;84.58;101188.31;6371660;22;45534;-91
2022/06/09 17:00:14;;;;;;;;;1.00;1.00;;;;;24.42;83.82;101220.53;6375169;22;48148;-92
2022/06/09 17:02:40;;;;;;;;;2.00;1.33;;;;;24.39;85.64;101157.97;6369892;22;45307;-91
2022/06/09 17:05:05;;;;;;;;;2.00;1.33;;;;;24.34;86.41;101115.06;6370141;22;45237;-90
2022/06/09 17:07:31;;;;;;;;;1.00;1.00;;;;;24.27;83.81;101205.41;6397806;22;45323;-91
2022/06/09 17:09:57;;;;;;;;;2.33;1.33;;;;;24.22;85.83;101140.16;6397609;22;45321;-91
2022/06/09 17:12:23;;;;;;;;;4.00;3.00;;;;;24.22;88.40;101059.69;6368677;22;45312;-92
2022/06/09 17:14:49;;;;;;;;;2.67;1.67;;;;;24.22;86.95;101118.69;6398203;22;45389;-92
2022/06/09 17:17:15;;;;;;;;;2.67;1.33;;;;;24.19;84.61;101196.47;6367971;22;45565;-91
2022/06/09 17:19:42;;;;;;;;;4.67;2.00;;;;;24.13;85.71;101170.56;6369106;22;47255;-91
2022/06/09 17:22:08;;;;;;;;;2.33;1.00;;;;;24.10;86.20;101159.84;6398074;22;45301;-90
2022/06/09 17:24:33;;;;;;;;;7.00;3.67;;;;;24.06;88.42;101083.94;6368745;22;45367;-92
2022/06/09 17:29:46;;;;;;;;;3.00;2.67;;;;;23.89;88.27;101102.75;6224443;22;45327;-90
2022/06/09 17:32:12;;;;;;;;;7.00;3.00;;;;;23.83;88.93;101078.69;6205331;22;45286;-90
2022/06/09 17:34:39;;;;;;;;;1.67;1.67;;;;;23.70;87.50;101110.91;6208739;22;45558;-92
2022/06/09 17:37:08;;;;;;;;;1.00;1.00;;;;;23.65;89.37;101060.03;6213418;22;45392;-91
2022/06/09 17:39:35;;;;;;;;;2.33;1.33;;;;;23.58;88.03;101119.00;6187671;22;48427;-91
2022/06/09 17:42:01;;;;;;;;;3.67;3.00;;;;;23.46;90.30;101037.72;6196364;22;45258;-92
2022/06/09 17:44:35;;;;;;;;;0.33;0.33;;;;;23.38;89.40;101047.56;6217724;22;46308;-93
2022/06/09 17:47:20;;;;;;;;;5.00;2.67;;;;;23.27;90.43;101044.94;6190133;22;46455;-91
2022/06/09 17:49:46;;;;;;;;;1.00;1.00;;;;;23.18;90.28;101046.75;6204970;22;47219;-92
2022/06/09 17:52:11;;;;;;;;;2.33;2.33;;;;;23.04;92.33;100968.28;6207935;22;45342;-91
2022/06/09 17:54:37;;;;;;;;;3.00;3.00;;;;;22.97;93.25;100879.97;6214409;22;50760;-88
2022/06/09 17:57:03;;;;;;;;;3.00;2.00;;;;;22.88;93.42;100870.16;6245459;22;45342;-92
2022/06/09 17:59:28;;;;;;;;;4.00;3.00;;;;;22.81;94.54;100830.97;6243991;22;45489;-93
2022/06/09 18:01:53;;;;;;;;;1.33;1.00;;;;;22.74;94.75;100811.38;6232291;22;45252;-88
2022/06/09 18:04:19;;;;;;;;;4.00;2.00;;;;;22.62;94.01;100827.47;6230564;22;45389;-92
2022/06/09 18:06:44;;;;;;;;;1.00;1.00;;;;;22.61;94.45;100839.03;6257396;22;45198;-93
2022/06/09 18:09:11;;;;;;;;;4.00;4.00;;;;;22.56;95.86;100793.59;6249836;22;47539;-95
2022/06/09 18:11:36;;;;;;;;;2.00;2.00;;;;;22.51;94.36;100848.88;6223606;22;45206;-89
2022/06/09 18:14:02;;;;;;;;;4.00;3.00;;;;;22.43;96.17;100785.63;6250363;22;45196;-90
2022/06/09 18:16:28;;;;;;;;;3.67;2.00;;;;;22.37;96.91;100766.03;6226512;22;44806;-92
2022/06/09 18:18:54;;;;;;;;;3.33;3.00;;;;;22.30;96.82;100739.31;6224293;22;47510;-92
2022/06/09 18:21:21;;;;;;;;;2.33;1.33;;;;;22.19;96.75;100742.03;6213901;22;45260;-92
2022/06/09 18:23:47;;;;;;;;;3.00;3.00;;;;;22.17;97.22;100746.50;6236835;22;45433;-93
2022/06/09 18:26:12;;;;;;;;;1.00;1.00;;;;;22.09;98.69;100674.34;6237524;22;45282;-94
2022/06/09 18:28:39;;;;;;;;;2.33;2.33;;;;;22.07;100.00;100601.31;6209802;22;46986;-93